Terminal Aerodrome Forecast
Issued by NWS Knoxville/Tri Cities, TN

Home | Current Version | Previous Version | Text Only | Print | Product List | Glossary On
Versions: 1 2 3 4 5 6 7 8 9 10 11 12 13 14
000
FTUS44 KMRX 251723
TAFCHA
TAF
KCHA 251723Z 2518/2618 VRB03KT P6SM FEW250
     FM252100 VRB03KT P6SM SCT050
     FM260200 00000KT P6SM SKC
     FM261400 01004KT P6SM SCT150=

USA.gov is the U.S. government's official web portal to all federal, state and local government web resources and services.